Binford, Mississippi
Current Conditions -  °F | °C
As of 5:35 PM on Monday 22 Dec 2014 (Local Time) from KM40 Reporting Station
Haze Haze  
Wind Chill: 55°   Ceiling: 300
Heat Index: 55°   Visibility: 3mi
Dew Point: 45°   Wind: 7mph
Humidity: 67%   Direction: 150°SSE
Pressure: 29.71"   Gusts: NA
Location:  33.8251°N, 88.6185°W
Report Text: KM40 222335Z AUTO 15006KT 3SM HZ OVC003 13/07 A2971 RMK AO2
Loading
Personal Weather Stations






























Interactive Weather Map New forecast layout! Learn more

10-Day Weather Forecast

Advertisements
Track Severe Weather on mobile